sensor_id;sensor_type;location;lat;lon;timestamp;P1;durP1;ratioP1;P2;durP2;ratioP2
64885;SDS011;51514;52.206;5.114;2022-12-26T00:01:42;32.40;;;17.65;;
64885;SDS011;51514;52.206;5.114;2022-12-26T00:04:11;36.85;;;19.40;;
64885;SDS011;51514;52.206;5.114;2022-12-26T00:06:37;32.65;;;19.20;;
64885;SDS011;51514;52.206;5.114;2022-12-26T00:09:03;31.98;;;19.00;;
64885;SDS011;51514;52.206;5.114;2022-12-26T00:11:31;34.57;;;18.90;;
64885;SDS011;51514;52.206;5.114;2022-12-26T00:14:02;33.30;;;18.15;;
64885;SDS011;51514;52.206;5.114;2022-12-26T00:16:30;35.20;;;18.75;;
64885;SDS011;51514;52.206;5.114;2022-12-26T00:18:55;33.25;;;19.55;;
64885;SDS011;51514;52.206;5.114;2022-12-26T00:21:21;35.90;;;21.13;;
64885;SDS011;51514;52.206;5.114;2022-12-26T00:23:52;33.05;;;19.48;;
64885;SDS011;51514;52.206;5.114;2022-12-26T00:26:19;38.00;;;20.67;;
64885;SDS011;51514;52.206;5.114;2022-12-26T00:28:46;37.00;;;20.63;;
64885;SDS011;51514;52.206;5.114;2022-12-26T00:31:16;36.28;;;20.17;;
64885;SDS011;51514;52.206;5.114;2022-12-26T00:33:43;37.92;;;21.55;;
64885;SDS011;51514;52.206;5.114;2022-12-26T00:36:11;39.25;;;22.17;;
64885;SDS011;51514;52.206;5.114;2022-12-26T00:38:38;38.70;;;21.95;;
64885;SDS011;51514;52.206;5.114;2022-12-26T00:41:04;36.38;;;20.95;;
64885;SDS011;51514;52.206;5.114;2022-12-26T00:43:31;36.65;;;21.90;;
64885;SDS011;51514;52.206;5.114;2022-12-26T00:45:56;38.13;;;21.52;;
64885;SDS011;51514;52.206;5.114;2022-12-26T00:48:21;48.13;;;24.25;;
64885;SDS011;51514;52.206;5.114;2022-12-26T00:50:47;46.40;;;23.88;;
64885;SDS011;51514;52.206;5.114;2022-12-26T00:53:12;46.53;;;24.80;;
64885;SDS011;51514;52.206;5.114;2022-12-26T00:55:38;42.90;;;24.25;;
64885;SDS011;51514;52.206;5.114;2022-12-26T00:58:03;42.10;;;23.45;;
64885;SDS011;51514;52.206;5.114;2022-12-26T01:00:29;44.45;;;24.70;;
64885;SDS011;51514;52.206;5.114;2022-12-26T01:02:54;46.90;;;24.77;;
64885;SDS011;51514;52.206;5.114;2022-12-26T01:05:19;50.95;;;25.90;;
64885;SDS011;51514;52.206;5.114;2022-12-26T01:07:45;51.25;;;25.67;;
64885;SDS011;51514;52.206;5.114;2022-12-26T01:10:10;47.35;;;26.08;;
64885;SDS011;51514;52.206;5.114;2022-12-26T01:12:37;52.63;;;28.17;;
64885;SDS011;51514;52.206;5.114;2022-12-26T01:15:02;52.25;;;26.45;;
64885;SDS011;51514;52.206;5.114;2022-12-26T01:17:29;46.67;;;26.60;;
64885;SDS011;51514;52.206;5.114;2022-12-26T01:19:55;50.83;;;26.45;;
64885;SDS011;51514;52.206;5.114;2022-12-26T01:22:21;44.38;;;24.15;;
64885;SDS011;51514;52.206;5.114;2022-12-26T01:24:47;45.88;;;25.30;;
64885;SDS011;51514;52.206;5.114;2022-12-26T01:27:13;47.85;;;25.83;;
64885;SDS011;51514;52.206;5.114;2022-12-26T01:29:38;51.55;;;28.00;;
64885;SDS011;51514;52.206;5.114;2022-12-26T01:32:03;48.90;;;26.27;;
64885;SDS011;51514;52.206;5.114;2022-12-26T01:34:29;50.15;;;25.92;;
64885;SDS011;51514;52.206;5.114;2022-12-26T01:36:54;44.63;;;25.23;;
64885;SDS011;51514;52.206;5.114;2022-12-26T01:39:20;51.88;;;26.92;;
64885;SDS011;51514;52.206;5.114;2022-12-26T01:41:46;50.20;;;26.60;;
64885;SDS011;51514;52.206;5.114;2022-12-26T01:47:14;52.08;;;27.58;;
64885;SDS011;51514;52.206;5.114;2022-12-26T01:49:42;49.78;;;28.00;;
64885;SDS011;51514;52.206;5.114;2022-12-26T01:52:11;49.20;;;27.17;;
64885;SDS011;51514;52.206;5.114;2022-12-26T01:54:41;51.47;;;27.15;;
64885;SDS011;51514;52.206;5.114;2022-12-26T01:57:14;56.77;;;28.07;;
64885;SDS011;51514;52.206;5.114;2022-12-26T01:59:43;51.78;;;28.83;;
64885;SDS011;51514;52.206;5.114;2022-12-26T02:02:10;48.15;;;27.50;;
64885;SDS011;51514;52.206;5.114;2022-12-26T02:04:37;53.60;;;28.08;;
64885;SDS011;51514;52.206;5.114;2022-12-26T02:07:25;54.67;;;28.30;;
64885;SDS011;51514;52.206;5.114;2022-12-26T02:09:51;52.00;;;27.42;;
64885;SDS011;51514;52.206;5.114;2022-12-26T02:12:20;52.22;;;29.27;;
64885;SDS011;51514;52.206;5.114;2022-12-26T02:14:55;49.30;;;28.65;;
64885;SDS011;51514;52.206;5.114;2022-12-26T02:17:22;52.60;;;29.20;;
64885;SDS011;51514;52.206;5.114;2022-12-26T02:25:19;48.28;;;28.52;;
64885;SDS011;51514;52.206;5.114;2022-12-26T02:28:35;50.40;;;28.42;;
64885;SDS011;51514;52.206;5.114;2022-12-26T02:34:14;46.25;;;27.23;;
64885;SDS011;51514;52.206;5.114;2022-12-26T02:51:20;38.85;;;23.67;;
64885;SDS011;51514;52.206;5.114;2022-12-26T02:54:23;35.85;;;22.30;;
64885;SDS011;51514;52.206;5.114;2022-12-26T02:57:23;37.17;;;22.98;;
64885;SDS011;51514;52.206;5.114;2022-12-26T03:00:13;34.70;;;21.92;;
64885;SDS011;51514;52.206;5.114;2022-12-26T03:06:03;31.08;;;20.30;;
64885;SDS011;51514;52.206;5.114;2022-12-26T03:11:53;30.33;;;18.83;;
64885;SDS011;51514;52.206;5.114;2022-12-26T03:14:43;34.28;;;20.48;;
64885;SDS011;51514;52.206;5.114;2022-12-26T03:17:18;31.50;;;19.70;;
64885;SDS011;51514;52.206;5.114;2022-12-26T03:25:31;34.03;;;19.95;;
64885;SDS011;51514;52.206;5.114;2022-12-26T03:28:20;29.65;;;19.23;;
64885;SDS011;51514;52.206;5.114;2022-12-26T03:30:46;37.22;;;22.50;;
64885;SDS011;51514;52.206;5.114;2022-12-26T03:36:10;34.90;;;22.63;;
64885;SDS011;51514;52.206;5.114;2022-12-26T03:41:21;43.70;;;24.42;;
64885;SDS011;51514;52.206;5.114;2022-12-26T03:50:14;40.20;;;24.60;;
64885;SDS011;51514;52.206;5.114;2022-12-26T03:53:12;40.20;;;24.90;;
64885;SDS011;51514;52.206;5.114;2022-12-26T03:56:24;39.40;;;24.63;;
64885;SDS011;51514;52.206;5.114;2022-12-26T03:59:13;40.13;;;24.67;;
64885;SDS011;51514;52.206;5.114;2022-12-26T04:02:17;47.13;;;26.67;;
64885;SDS011;51514;52.206;5.114;2022-12-26T04:05:04;41.42;;;24.98;;
64885;SDS011;51514;52.206;5.114;2022-12-26T04:07:54;40.97;;;24.95;;
64885;SDS011;51514;52.206;5.114;2022-12-26T04:10:49;38.03;;;23.45;;
64885;SDS011;51514;52.206;5.114;2022-12-26T04:13:49;40.53;;;25.10;;
64885;SDS011;51514;52.206;5.114;2022-12-26T04:16:39;37.70;;;23.58;;
64885;SDS011;51514;52.206;5.114;2022-12-26T04:19:47;35.05;;;22.90;;
64885;SDS011;51514;52.206;5.114;2022-12-26T04:22:42;33.13;;;21.27;;
64885;SDS011;51514;52.206;5.114;2022-12-26T04:25:34;31.85;;;19.60;;
64885;SDS011;51514;52.206;5.114;2022-12-26T04:28:26;29.45;;;19.45;;
64885;SDS011;51514;52.206;5.114;2022-12-26T04:33:57;23.83;;;17.65;;
64885;SDS011;51514;52.206;5.114;2022-12-26T04:36:47;26.15;;;17.65;;
64885;SDS011;51514;52.206;5.114;2022-12-26T04:39:38;24.08;;;15.73;;
64885;SDS011;51514;52.206;5.114;2022-12-26T04:42:26;23.20;;;15.48;;
64885;SDS011;51514;52.206;5.114;2022-12-26T04:45:12;25.33;;;16.50;;
64885;SDS011;51514;52.206;5.114;2022-12-26T04:47:38;24.65;;;15.75;;
64885;SDS011;51514;52.206;5.114;2022-12-26T04:50:23;24.13;;;15.82;;
64885;SDS011;51514;52.206;5.114;2022-12-26T04:52:49;23.17;;;14.48;;
64885;SDS011;51514;52.206;5.114;2022-12-26T04:55:26;24.83;;;14.80;;
64885;SDS011;51514;52.206;5.114;2022-12-26T04:57:57;23.60;;;15.25;;
64885;SDS011;51514;52.206;5.114;2022-12-26T05:00:23;20.42;;;12.82;;
64885;SDS011;51514;52.206;5.114;2022-12-26T05:02:52;24.02;;;13.50;;
64885;SDS011;51514;52.206;5.114;2022-12-26T05:05:38;19.52;;;13.27;;
64885;SDS011;51514;52.206;5.114;2022-12-26T05:08:25;19.80;;;11.60;;
64885;SDS011;51514;52.206;5.114;2022-12-26T05:11:21;18.15;;;11.32;;
64885;SDS011;51514;52.206;5.114;2022-12-26T05:13:46;15.18;;;11.05;;
64885;SDS011;51514;52.206;5.114;2022-12-26T05:16:12;17.73;;;11.35;;
64885;SDS011;51514;52.206;5.114;2022-12-26T05:18:56;17.45;;;10.25;;
64885;SDS011;51514;52.206;5.114;2022-12-26T05:21:40;15.82;;;9.88;;
64885;SDS011;51514;52.206;5.114;2022-12-26T05:24:24;18.00;;;9.10;;
64885;SDS011;51514;52.206;5.114;2022-12-26T05:27:15;13.98;;;8.65;;
64885;SDS011;51514;52.206;5.114;2022-12-26T05:29:59;16.40;;;8.77;;
64885;SDS011;51514;52.206;5.114;2022-12-26T05:32:24;12.93;;;7.15;;
64885;SDS011;51514;52.206;5.114;2022-12-26T05:35:08;15.02;;;8.32;;
64885;SDS011;51514;52.206;5.114;2022-12-26T05:37:34;10.32;;;7.55;;
64885;SDS011;51514;52.206;5.114;2022-12-26T05:39:59;12.70;;;8.00;;
64885;SDS011;51514;52.206;5.114;2022-12-26T05:42:25;10.90;;;6.95;;
64885;SDS011;51514;52.206;5.114;2022-12-26T05:44:50;12.85;;;7.85;;
64885;SDS011;51514;52.206;5.114;2022-12-26T05:47:16;12.55;;;7.72;;
64885;SDS011;51514;52.206;5.114;2022-12-26T05:49:41;11.55;;;7.55;;
64885;SDS011;51514;52.206;5.114;2022-12-26T05:52:06;11.63;;;7.57;;
64885;SDS011;51514;52.206;5.114;2022-12-26T05:54:32;13.98;;;7.40;;
64885;SDS011;51514;52.206;5.114;2022-12-26T05:56:57;14.13;;;7.47;;
64885;SDS011;51514;52.206;5.114;2022-12-26T05:59:23;12.05;;;7.18;;
64885;SDS011;51514;52.206;5.114;2022-12-26T06:01:48;10.63;;;6.00;;
64885;SDS011;51514;52.206;5.114;2022-12-26T06:04:14;10.80;;;7.50;;
64885;SDS011;51514;52.206;5.114;2022-12-26T06:06:39;10.35;;;6.75;;
64885;SDS011;51514;52.206;5.114;2022-12-26T06:09:05;12.90;;;6.88;;
64885;SDS011;51514;52.206;5.114;2022-12-26T06:11:30;11.55;;;6.88;;
64885;SDS011;51514;52.206;5.114;2022-12-26T06:13:55;10.40;;;6.75;;
64885;SDS011;51514;52.206;5.114;2022-12-26T06:16:21;9.48;;;6.22;;
64885;SDS011;51514;52.206;5.114;2022-12-26T06:18:47;9.98;;;6.45;;
64885;SDS011;51514;52.206;5.114;2022-12-26T06:21:16;11.13;;;5.93;;
64885;SDS011;51514;52.206;5.114;2022-12-26T06:23:43;16.13;;;7.05;;
64885;SDS011;51514;52.206;5.114;2022-12-26T06:26:09;12.90;;;7.53;;
64885;SDS011;51514;52.206;5.114;2022-12-26T06:28:36;13.18;;;6.65;;
64885;SDS011;51514;52.206;5.114;2022-12-26T06:31:04;11.65;;;7.35;;
64885;SDS011;51514;52.206;5.114;2022-12-26T06:33:34;11.63;;;6.40;;
64885;SDS011;51514;52.206;5.114;2022-12-26T06:36:03;14.05;;;7.68;;
64885;SDS011;51514;52.206;5.114;2022-12-26T06:38:33;11.80;;;6.72;;
64885;SDS011;51514;52.206;5.114;2022-12-26T06:40:59;10.77;;;7.10;;
64885;SDS011;51514;52.206;5.114;2022-12-26T06:43:24;11.70;;;6.60;;
64885;SDS011;51514;52.206;5.114;2022-12-26T06:45:54;10.50;;;6.78;;
64885;SDS011;51514;52.206;5.114;2022-12-26T06:48:23;10.20;;;6.68;;
64885;SDS011;51514;52.206;5.114;2022-12-26T06:50:49;12.48;;;6.95;;
64885;SDS011;51514;52.206;5.114;2022-12-26T06:53:14;9.27;;;6.28;;
64885;SDS011;51514;52.206;5.114;2022-12-26T06:55:40;11.13;;;6.53;;
64885;SDS011;51514;52.206;5.114;2022-12-26T06:58:05;11.35;;;7.10;;
64885;SDS011;51514;52.206;5.114;2022-12-26T07:00:30;8.55;;;6.55;;
64885;SDS011;51514;52.206;5.114;2022-12-26T07:02:55;12.65;;;6.53;;
64885;SDS011;51514;52.206;5.114;2022-12-26T07:05:21;9.02;;;6.50;;
64885;SDS011;51514;52.206;5.114;2022-12-26T07:07:49;11.55;;;6.60;;
64885;SDS011;51514;52.206;5.114;2022-12-26T07:12:41;10.18;;;5.82;;
64885;SDS011;51514;52.206;5.114;2022-12-26T07:15:07;10.93;;;5.90;;
64885;SDS011;51514;52.206;5.114;2022-12-26T07:17:34;9.60;;;5.63;;
64885;SDS011;51514;52.206;5.114;2022-12-26T07:20:00;12.32;;;6.38;;
64885;SDS011;51514;52.206;5.114;2022-12-26T07:22:26;10.32;;;5.78;;
64885;SDS011;51514;52.206;5.114;2022-12-26T07:24:53;8.18;;;5.28;;
64885;SDS011;51514;52.206;5.114;2022-12-26T07:27:18;13.98;;;6.35;;
64885;SDS011;51514;52.206;5.114;2022-12-26T07:29:43;12.25;;;6.18;;
64885;SDS011;51514;52.206;5.114;2022-12-26T07:32:08;11.68;;;5.53;;
64885;SDS011;51514;52.206;5.114;2022-12-26T07:34:34;10.60;;;5.40;;
64885;SDS011;51514;52.206;5.114;2022-12-26T07:36:59;8.05;;;4.72;;
64885;SDS011;51514;52.206;5.114;2022-12-26T07:39:24;10.88;;;5.65;;
64885;SDS011;51514;52.206;5.114;2022-12-26T07:41:50;7.78;;;4.88;;
64885;SDS011;51514;52.206;5.114;2022-12-26T07:44:21;12.25;;;6.45;;
64885;SDS011;51514;52.206;5.114;2022-12-26T07:46:47;11.27;;;5.32;;
64885;SDS011;51514;52.206;5.114;2022-12-26T07:49:12;7.72;;;4.75;;
64885;SDS011;51514;52.206;5.114;2022-12-26T07:51:38;12.25;;;4.63;;
64885;SDS011;51514;52.206;5.114;2022-12-26T07:54:04;10.10;;;5.28;;
64885;SDS011;51514;52.206;5.114;2022-12-26T07:56:30;14.95;;;4.78;;
64885;SDS011;51514;52.206;5.114;2022-12-26T07:58:56;10.43;;;4.90;;
64885;SDS011;51514;52.206;5.114;2022-12-26T08:01:21;8.77;;;4.65;;
64885;SDS011;51514;52.206;5.114;2022-12-26T08:03:47;9.70;;;4.57;;
64885;SDS011;51514;52.206;5.114;2022-12-26T08:06:13;7.28;;;4.32;;
64885;SDS011;51514;52.206;5.114;2022-12-26T08:08:39;9.18;;;4.97;;
64885;SDS011;51514;52.206;5.114;2022-12-26T08:11:06;12.05;;;4.50;;
64885;SDS011;51514;52.206;5.114;2022-12-26T08:13:33;6.63;;;4.10;;
64885;SDS011;51514;52.206;5.114;2022-12-26T08:16:02;11.10;;;5.35;;
64885;SDS011;51514;52.206;5.114;2022-12-26T08:18:30;7.70;;;3.70;;
64885;SDS011;51514;52.206;5.114;2022-12-26T08:20:56;9.25;;;4.63;;
64885;SDS011;51514;52.206;5.114;2022-12-26T08:23:22;10.60;;;4.22;;
64885;SDS011;51514;52.206;5.114;2022-12-26T08:25:47;8.60;;;3.90;;
64885;SDS011;51514;52.206;5.114;2022-12-26T08:28:13;8.75;;;4.03;;
64885;SDS011;51514;52.206;5.114;2022-12-26T08:30:39;6.60;;;3.95;;
64885;SDS011;51514;52.206;5.114;2022-12-26T08:33:07;8.88;;;4.10;;
64885;SDS011;51514;52.206;5.114;2022-12-26T08:35:34;11.18;;;4.35;;
64885;SDS011;51514;52.206;5.114;2022-12-26T08:38:01;9.85;;;4.25;;
64885;SDS011;51514;52.206;5.114;2022-12-26T08:40:27;8.82;;;3.97;;
64885;SDS011;51514;52.206;5.114;2022-12-26T08:42:52;12.00;;;5.00;;
64885;SDS011;51514;52.206;5.114;2022-12-26T08:45:18;8.48;;;5.18;;
64885;SDS011;51514;52.206;5.114;2022-12-26T08:47:43;12.55;;;5.32;;
64885;SDS011;51514;52.206;5.114;2022-12-26T08:50:09;7.05;;;4.88;;
64885;SDS011;51514;52.206;5.114;2022-12-26T08:52:34;7.78;;;4.80;;
64885;SDS011;51514;52.206;5.114;2022-12-26T08:55:00;8.52;;;4.10;;
64885;SDS011;51514;52.206;5.114;2022-12-26T08:57:26;9.20;;;5.50;;
64885;SDS011;51514;52.206;5.114;2022-12-26T08:59:51;7.95;;;4.32;;
64885;SDS011;51514;52.206;5.114;2022-12-26T09:02:16;8.05;;;4.28;;
64885;SDS011;51514;52.206;5.114;2022-12-26T09:04:42;8.70;;;3.88;;
64885;SDS011;51514;52.206;5.114;2022-12-26T09:07:07;10.20;;;3.85;;
64885;SDS011;51514;52.206;5.114;2022-12-26T09:09:33;7.13;;;3.40;;
64885;SDS011;51514;52.206;5.114;2022-12-26T09:11:59;10.30;;;3.30;;
64885;SDS011;51514;52.206;5.114;2022-12-26T09:14:24;11.45;;;4.57;;
64885;SDS011;51514;52.206;5.114;2022-12-26T09:16:49;12.93;;;3.90;;
64885;SDS011;51514;52.206;5.114;2022-12-26T09:19:17;10.85;;;3.20;;
64885;SDS011;51514;52.206;5.114;2022-12-26T09:21:43;10.82;;;3.25;;
64885;SDS011;51514;52.206;5.114;2022-12-26T09:24:11;14.23;;;3.88;;
64885;SDS011;51514;52.206;5.114;2022-12-26T09:26:37;26.27;;;5.05;;
64885;SDS011;51514;52.206;5.114;2022-12-26T09:29:03;17.42;;;4.50;;
64885;SDS011;51514;52.206;5.114;2022-12-26T09:31:29;15.65;;;4.40;;
64885;SDS011;51514;52.206;5.114;2022-12-26T09:33:56;9.40;;;3.63;;
64885;SDS011;51514;52.206;5.114;2022-12-26T09:36:23;15.82;;;4.28;;
64885;SDS011;51514;52.206;5.114;2022-12-26T09:38:50;10.40;;;3.20;;
64885;SDS011;51514;52.206;5.114;2022-12-26T09:41:39;15.75;;;3.85;;
64885;SDS011;51514;52.206;5.114;2022-12-26T09:44:14;14.02;;;3.55;;
64885;SDS011;51514;52.206;5.114;2022-12-26T09:49:35;19.30;;;5.55;;
64885;SDS011;51514;52.206;5.114;2022-12-26T09:52:10;13.90;;;3.80;;
64885;SDS011;51514;52.206;5.114;2022-12-26T09:54:43;14.10;;;3.42;;
64885;SDS011;51514;52.206;5.114;2022-12-26T09:57:16;16.13;;;2.85;;
64885;SDS011;51514;52.206;5.114;2022-12-26T10:00:05;13.27;;;3.87;;
64885;SDS011;51514;52.206;5.114;2022-12-26T10:02:30;16.08;;;3.97;;
64885;SDS011;51514;52.206;5.114;2022-12-26T10:04:56;19.50;;;2.97;;
64885;SDS011;51514;52.206;5.114;2022-12-26T10:12:35;14.48;;;4.35;;
64885;SDS011;51514;52.206;5.114;2022-12-26T10:26:03;11.20;;;3.23;;
64885;SDS011;51514;52.206;5.114;2022-12-26T10:28:37;10.55;;;2.88;;
64885;SDS011;51514;52.206;5.114;2022-12-26T10:34:15;8.75;;;2.83;;
64885;SDS011;51514;52.206;5.114;2022-12-26T10:36:43;10.40;;;3.13;;
64885;SDS011;51514;52.206;5.114;2022-12-26T10:39:14;10.77;;;2.92;;
64885;SDS011;51514;52.206;5.114;2022-12-26T10:41:49;6.57;;;2.25;;
64885;SDS011;51514;52.206;5.114;2022-12-26T10:44:16;8.18;;;2.70;;
64885;SDS011;51514;52.206;5.114;2022-12-26T10:49:32;8.93;;;2.63;;
64885;SDS011;51514;52.206;5.114;2022-12-26T10:51:58;4.63;;;1.83;;
64885;SDS011;51514;52.206;5.114;2022-12-26T10:54:25;8.82;;;2.50;;
64885;SDS011;51514;52.206;5.114;2022-12-26T10:56:52;10.38;;;6.75;;
64885;SDS011;51514;52.206;5.114;2022-12-26T10:59:22;12.57;;;7.03;;
64885;SDS011;51514;52.206;5.114;2022-12-26T11:01:54;12.48;;;6.53;;
64885;SDS011;51514;52.206;5.114;2022-12-26T11:04:34;10.85;;;3.63;;
64885;SDS011;51514;52.206;5.114;2022-12-26T11:07:00;13.55;;;6.68;;
64885;SDS011;51514;52.206;5.114;2022-12-26T11:12:04;22.20;;;11.93;;
64885;SDS011;51514;52.206;5.114;2022-12-26T11:14:37;34.45;;;24.08;;
64885;SDS011;51514;52.206;5.114;2022-12-26T11:17:25;12.85;;;5.47;;
64885;SDS011;51514;52.206;5.114;2022-12-26T11:20:10;20.35;;;9.05;;
64885;SDS011;51514;52.206;5.114;2022-12-26T11:22:36;12.10;;;5.53;;
64885;SDS011;51514;52.206;5.114;2022-12-26T11:25:12;18.10;;;8.10;;
64885;SDS011;51514;52.206;5.114;2022-12-26T11:27:40;9.40;;;3.85;;
64885;SDS011;51514;52.206;5.114;2022-12-26T11:30:15;17.70;;;12.73;;
64885;SDS011;51514;52.206;5.114;2022-12-26T11:32:45;13.23;;;3.03;;
64885;SDS011;51514;52.206;5.114;2022-12-26T11:35:22;9.32;;;2.80;;
64885;SDS011;51514;52.206;5.114;2022-12-26T11:37:54;10.50;;;2.80;;
64885;SDS011;51514;52.206;5.114;2022-12-26T11:40:45;10.73;;;5.00;;
64885;SDS011;51514;52.206;5.114;2022-12-26T11:43:34;9.93;;;5.63;;
64885;SDS011;51514;52.206;5.114;2022-12-26T11:46:00;8.00;;;4.00;;
64885;SDS011;51514;52.206;5.114;2022-12-26T11:48:25;9.13;;;3.05;;
64885;SDS011;51514;52.206;5.114;2022-12-26T11:50:51;10.90;;;2.35;;
64885;SDS011;51514;52.206;5.114;2022-12-26T11:53:18;8.38;;;3.15;;
64885;SDS011;51514;52.206;5.114;2022-12-26T11:55:56;9.63;;;4.43;;
64885;SDS011;51514;52.206;5.114;2022-12-26T11:58:23;9.30;;;3.33;;
64885;SDS011;51514;52.206;5.114;2022-12-26T12:01:02;9.65;;;4.45;;
64885;SDS011;51514;52.206;5.114;2022-12-26T12:03:48;11.43;;;3.30;;
64885;SDS011;51514;52.206;5.114;2022-12-26T12:14:34;10.90;;;3.17;;
64885;SDS011;51514;52.206;5.114;2022-12-26T12:17:10;9.45;;;3.60;;
64885;SDS011;51514;52.206;5.114;2022-12-26T12:31:04;4.60;;;2.00;;
64885;SDS011;51514;52.206;5.114;2022-12-26T12:33:55;7.45;;;2.58;;
64885;SDS011;51514;52.206;5.114;2022-12-26T12:36:41;8.00;;;2.85;;
64885;SDS011;51514;52.206;5.114;2022-12-26T12:39:39;6.75;;;2.47;;
64885;SDS011;51514;52.206;5.114;2022-12-26T12:50:53;13.40;;;7.70;;
64885;SDS011;51514;52.206;5.114;2022-12-26T12:59:37;6.95;;;3.17;;
64885;SDS011;51514;52.206;5.114;2022-12-26T13:02:19;15.38;;;6.78;;
64885;SDS011;51514;52.206;5.114;2022-12-26T13:04:53;8.75;;;5.18;;
64885;SDS011;51514;52.206;5.114;2022-12-26T13:07:29;11.93;;;4.22;;
64885;SDS011;51514;52.206;5.114;2022-12-26T13:10:03;8.27;;;3.13;;
64885;SDS011;51514;52.206;5.114;2022-12-26T13:12:38;3.03;;;1.75;;
64885;SDS011;51514;52.206;5.114;2022-12-26T13:15:07;8.13;;;4.32;;
64885;SDS011;51514;52.206;5.114;2022-12-26T13:18:19;6.35;;;3.90;;
64885;SDS011;51514;52.206;5.114;2022-12-26T13:20:46;9.00;;;2.58;;
64885;SDS011;51514;52.206;5.114;2022-12-26T13:23:24;7.85;;;2.70;;
64885;SDS011;51514;52.206;5.114;2022-12-26T13:26:18;13.25;;;3.40;;
64885;SDS011;51514;52.206;5.114;2022-12-26T13:29:32;7.93;;;2.97;;
64885;SDS011;51514;52.206;5.114;2022-12-26T13:31:37;11.57;;;5.47;;
64885;SDS011;51514;52.206;5.114;2022-12-26T13:34:06;11.65;;;4.32;;
64885;SDS011;51514;52.206;5.114;2022-12-26T13:36:38;12.35;;;4.18;;
64885;SDS011;51514;52.206;5.114;2022-12-26T13:44:57;15.50;;;5.35;;
64885;SDS011;51514;52.206;5.114;2022-12-26T13:47:59;8.32;;;3.40;;
64885;SDS011;51514;52.206;5.114;2022-12-26T13:50:46;18.38;;;6.72;;
64885;SDS011;51514;52.206;5.114;2022-12-26T13:56:03;16.45;;;7.35;;
64885;SDS011;51514;52.206;5.114;2022-12-26T13:58:54;23.25;;;14.68;;
64885;SDS011;51514;52.206;5.114;2022-12-26T14:04:38;18.77;;;7.55;;
64885;SDS011;51514;52.206;5.114;2022-12-26T14:07:33;12.15;;;3.72;;
64885;SDS011;51514;52.206;5.114;2022-12-26T14:10:17;9.00;;;3.30;;
64885;SDS011;51514;52.206;5.114;2022-12-26T14:18:22;7.90;;;3.42;;
64885;SDS011;51514;52.206;5.114;2022-12-26T14:24:09;11.43;;;4.68;;
64885;SDS011;51514;52.206;5.114;2022-12-26T14:30:20;13.50;;;5.72;;
64885;SDS011;51514;52.206;5.114;2022-12-26T14:35:32;23.17;;;9.25;;
64885;SDS011;51514;52.206;5.114;2022-12-26T14:40:30;14.70;;;7.50;;
64885;SDS011;51514;52.206;5.114;2022-12-26T14:45:41;17.50;;;4.93;;
64885;SDS011;51514;52.206;5.114;2022-12-26T14:55:48;15.20;;;5.35;;
64885;SDS011;51514;52.206;5.114;2022-12-26T15:00:55;16.75;;;7.78;;
64885;SDS011;51514;52.206;5.114;2022-12-26T15:17:09;14.68;;;3.92;;
64885;SDS011;51514;52.206;5.114;2022-12-26T15:28:08;15.77;;;4.65;;
64885;SDS011;51514;52.206;5.114;2022-12-26T15:33:38;15.95;;;8.15;;
64885;SDS011;51514;52.206;5.114;2022-12-26T15:47:31;12.70;;;4.93;;
64885;SDS011;51514;52.206;5.114;2022-12-26T15:56:01;10.35;;;5.07;;
64885;SDS011;51514;52.206;5.114;2022-12-26T16:01:37;15.27;;;7.55;;
64885;SDS011;51514;52.206;5.114;2022-12-26T16:04:26;15.27;;;6.80;;
64885;SDS011;51514;52.206;5.114;2022-12-26T16:07:06;8.60;;;3.72;;
64885;SDS011;51514;52.206;5.114;2022-12-26T16:09:42;14.43;;;4.57;;
64885;SDS011;51514;52.206;5.114;2022-12-26T16:12:20;12.60;;;4.20;;
64885;SDS011;51514;52.206;5.114;2022-12-26T16:14:48;13.40;;;3.58;;
64885;SDS011;51514;52.206;5.114;2022-12-26T16:19:40;10.25;;;2.95;;
64885;SDS011;51514;52.206;5.114;2022-12-26T16:22:07;9.02;;;3.53;;
64885;SDS011;51514;52.206;5.114;2022-12-26T16:24:57;10.55;;;3.38;;
64885;SDS011;51514;52.206;5.114;2022-12-26T16:27:24;13.05;;;3.22;;
64885;SDS011;51514;52.206;5.114;2022-12-26T16:29:57;11.68;;;3.38;;
64885;SDS011;51514;52.206;5.114;2022-12-26T16:32:34;12.70;;;4.15;;
64885;SDS011;51514;52.206;5.114;2022-12-26T16:35:02;11.77;;;4.15;;
64885;SDS011;51514;52.206;5.114;2022-12-26T16:37:28;9.93;;;3.17;;
64885;SDS011;51514;52.206;5.114;2022-12-26T16:40:04;9.73;;;2.93;;
64885;SDS011;51514;52.206;5.114;2022-12-26T16:42:31;8.50;;;3.05;;
64885;SDS011;51514;52.206;5.114;2022-12-26T16:44:57;17.80;;;4.00;;
64885;SDS011;51514;52.206;5.114;2022-12-26T16:47:24;11.10;;;3.03;;
64885;SDS011;51514;52.206;5.114;2022-12-26T16:49:51;9.13;;;3.22;;
64885;SDS011;51514;52.206;5.114;2022-12-26T16:57:46;13.50;;;3.80;;
64885;SDS011;51514;52.206;5.114;2022-12-26T17:00:18;13.13;;;5.95;;
64885;SDS011;51514;52.206;5.114;2022-12-26T17:02:46;19.70;;;8.52;;
64885;SDS011;51514;52.206;5.114;2022-12-26T17:05:26;15.75;;;4.90;;
64885;SDS011;51514;52.206;5.114;2022-12-26T17:07:59;24.27;;;3.92;;
64885;SDS011;51514;52.206;5.114;2022-12-26T17:12:58;16.15;;;8.63;;
64885;SDS011;51514;52.206;5.114;2022-12-26T17:15:27;15.07;;;4.03;;
64885;SDS011;51514;52.206;5.114;2022-12-26T17:22:48;20.05;;;6.28;;
64885;SDS011;51514;52.206;5.114;2022-12-26T17:25:19;13.40;;;4.47;;
64885;SDS011;51514;52.206;5.114;2022-12-26T17:30:46;15.07;;;3.83;;
64885;SDS011;51514;52.206;5.114;2022-12-26T17:35:57;11.15;;;5.63;;
64885;SDS011;51514;52.206;5.114;2022-12-26T17:38:27;15.38;;;6.22;;
64885;SDS011;51514;52.206;5.114;2022-12-26T17:40:56;20.40;;;6.35;;
64885;SDS011;51514;52.206;5.114;2022-12-26T17:43:30;17.15;;;5.00;;
64885;SDS011;51514;52.206;5.114;2022-12-26T17:46:00;15.93;;;5.57;;
64885;SDS011;51514;52.206;5.114;2022-12-26T17:48:27;21.08;;;10.00;;
64885;SDS011;51514;52.206;5.114;2022-12-26T17:50:56;14.63;;;5.43;;
64885;SDS011;51514;52.206;5.114;2022-12-26T17:53:25;18.38;;;6.35;;
64885;SDS011;51514;52.206;5.114;2022-12-26T17:55:58;15.00;;;4.97;;
64885;SDS011;51514;52.206;5.114;2022-12-26T17:58:26;12.80;;;3.45;;
64885;SDS011;51514;52.206;5.114;2022-12-26T18:00:52;14.82;;;4.97;;
64885;SDS011;51514;52.206;5.114;2022-12-26T18:03:18;11.75;;;3.60;;
64885;SDS011;51514;52.206;5.114;2022-12-26T18:05:44;12.10;;;4.32;;
64885;SDS011;51514;52.206;5.114;2022-12-26T18:08:31;19.73;;;6.30;;
64885;SDS011;51514;52.206;5.114;2022-12-26T18:11:01;18.08;;;6.63;;
64885;SDS011;51514;52.206;5.114;2022-12-26T18:13:30;13.35;;;4.68;;
64885;SDS011;51514;52.206;5.114;2022-12-26T18:15:55;31.45;;;17.23;;
64885;SDS011;51514;52.206;5.114;2022-12-26T18:18:38;15.18;;;3.92;;
64885;SDS011;51514;52.206;5.114;2022-12-26T18:21:06;10.32;;;6.00;;
64885;SDS011;51514;52.206;5.114;2022-12-26T18:23:33;13.55;;;5.03;;
64885;SDS011;51514;52.206;5.114;2022-12-26T18:26:00;12.55;;;3.80;;
64885;SDS011;51514;52.206;5.114;2022-12-26T18:28:27;15.45;;;3.92;;
64885;SDS011;51514;52.206;5.114;2022-12-26T18:30:53;13.75;;;4.38;;
64885;SDS011;51514;52.206;5.114;2022-12-26T18:33:19;12.30;;;4.07;;
64885;SDS011;51514;52.206;5.114;2022-12-26T18:35:45;15.52;;;5.03;;
64885;SDS011;51514;52.206;5.114;2022-12-26T18:38:17;15.65;;;4.60;;
64885;SDS011;51514;52.206;5.114;2022-12-26T18:40:45;13.07;;;4.75;;
64885;SDS011;51514;52.206;5.114;2022-12-26T18:43:13;16.17;;;4.38;;
64885;SDS011;51514;52.206;5.114;2022-12-26T18:45:38;14.52;;;4.47;;
64885;SDS011;51514;52.206;5.114;2022-12-26T18:48:05;12.73;;;5.07;;